메인 페이지
METAR-TAF:

METAR-TAF

공항 :

쿠웨이트 국제공항

쿠웨이트, 쿠웨이트

위도: 29-13N, 경도: 047-59E, 고도: 55m

현재 날씨관측

예보는 1 시간 0분 전, 22:00시(UTC)에 발표되었습니다.
서북서4kt
온도 24°C
습도 47%
기압 1009 hPa
시정 10km 이상
1500m 미만 상공 구름 및 적란운 없음

METAR: OKKK 182200Z 29004KT CAVOK 24/12 Q1009 NOSIG

시각: 02:00 (23:00 UTC)

예보

예보는 6 시간 0분 전, 17:00시(UTC)에 발표되었습니다.
예보 대상 시간: 18일 18시부터 19일 24시까지 (UTC)
남남동10kt
시정: 7000m
일시적
18일 20시부터 19일 06시까지 (UTC)
남서8kt

TAF: OKKK 181700Z 1818/1924 15010KT 7000 NSC TEMPO 1820/1906 22008KT

4,000개 이상의 공항 관측 자료 및 예보 (METAR 및 TAF 보고).

지도상에서 검색 가능한 기상관측소가 노란 점과 빨간 점으로 표시되어 있습니다.

기상관측소 명을 보려면 표시 위로 마우스를 이동하세요.

날씨 관측과 예보를 보려면 클릭하세요.

지도 변경 : 확대하려면 엑스 표시가 있는 녹색 버튼, 축소하려면 빼기 표시가 있는 녹색 버튼, 다음 페이지의 지도를 보려면 녹색 화살표를 클릭하세요.


METAR-TAF: